Time;durP1;ratioP1;P1;durP2;ratioP2;P2;SDS_P1;SDS_P2;PMS_P1;PMS_P2;Temp;Humidity;BMP_temperature;BMP_pressure;BME280_temperature;BME280_humidity;BME280_pressure;Samples;Min_cycle;Max_cycle;Signal;HPM_P1;HPM_P2
2023/06/19 00:00:39;;;;;;;7.45;3.52;;;26.80;99.90;;;;;;1985834;71;21154;-79
2023/06/19 00:03:10;;;;;;;7.45;2.95;;;26.80;99.90;;;;;;1999485;70;21083;-79
2023/06/19 00:05:43;;;;;;;6.40;2.92;;;26.80;99.90;;;;;;1999474;70;21565;-80
2023/06/19 00:08:15;;;;;;;6.25;2.90;;;26.80;99.90;;;;;;1995332;70;21033;-78
2023/06/19 00:10:47;;;;;;;5.30;2.35;;;26.90;99.90;;;;;;1990035;71;21180;-76
2023/06/19 00:13:19;;;;;;;8.33;2.75;;;26.90;99.90;;;;;;1996176;69;21084;-76
2023/06/19 00:15:50;;;;;;;5.95;2.58;;;26.90;99.90;;;;;;1986041;71;21037;-77
2023/06/19 00:18:22;;;;;;;4.65;2.33;;;26.90;99.90;;;;;;1994988;70;21083;-76
2023/06/19 00:20:55;;;;;;;6.00;2.30;;;26.90;99.90;;;;;;1927828;72;22707;-74
2023/06/19 00:23:26;;;;;;;6.28;2.60;;;27.00;99.90;;;;;;1948396;71;21094;-80
2023/06/19 00:25:56;;;;;;;5.97;2.22;;;27.00;99.90;;;;;;1953524;72;21159;-82
2023/06/19 00:28:29;;;;;;;5.17;2.60;;;27.00;99.90;;;;;;1954519;71;21189;-80
2023/06/19 00:31:00;;;;;;;4.60;2.72;;;27.10;99.90;;;;;;1939311;71;21603;-79
2023/06/19 00:33:31;;;;;;;4.85;2.55;;;27.10;99.90;;;;;;1960814;71;21817;-78
2023/06/19 00:36:02;;;;;;;11.20;3.10;;;27.10;99.90;;;;;;1934770;72;21228;-78
2023/06/19 00:38:33;;;;;;;7.95;3.47;;;27.10;99.90;;;;;;1936690;72;21616;-80
2023/06/19 00:41:06;;;;;;;5.97;2.70;;;27.20;99.90;;;;;;1954207;71;21245;-79
2023/06/19 00:43:37;;;;;;;6.45;2.87;;;27.20;99.90;;;;;;1961219;71;21049;-75
2023/06/19 00:46:09;;;;;;;5.10;3.20;;;27.30;99.90;;;;;;1963692;71;21566;-80
2023/06/19 00:48:40;;;;;;;3.62;2.00;;;27.30;99.90;;;;;;1996166;71;21179;-77
2023/06/19 00:51:14;;;;;;;7.33;2.62;;;27.30;99.90;;;;;;1929997;72;21084;-77
2023/06/19 00:53:47;;;;;;;7.20;2.40;;;27.40;99.90;;;;;;1935896;72;21620;-79
2023/06/19 00:56:18;;;;;;;9.23;2.75;;;27.40;99.90;;;;;;1933244;73;21115;-80
2023/06/19 00:58:49;;;;;;;9.28;2.55;;;27.40;99.90;;;;;;1982018;71;21619;-80
2023/06/19 01:01:23;;;;;;;5.42;2.50;;;27.50;99.90;;;;;;2001725;69;21686;-80
2023/06/19 01:03:54;;;;;;;7.20;2.52;;;27.50;99.90;;;;;;2008533;70;21190;-78
2023/06/19 01:06:29;;;;;;;5.65;2.40;;;27.50;99.90;;;;;;1991083;70;21524;-78
2023/06/19 01:09:03;;;;;;;4.70;2.40;;;27.50;99.90;;;;;;1993679;70;21087;-80
2023/06/19 01:11:37;;;;;;;5.62;2.12;;;27.60;99.90;;;;;;1991048;70;21697;-80
2023/06/19 01:14:22;;;;;;;6.45;2.00;;;27.60;99.90;;;;;;2002799;70;21193;-79
2023/06/19 01:16:55;;;;;;;11.83;3.40;;;27.60;99.90;;;;;;1993343;71;21074;-76
2023/06/19 01:19:30;;;;;;;23.62;4.05;;;27.60;99.90;;;;;;1991176;71;21099;-79
2023/06/19 01:22:06;;;;;;;17.23;3.40;;;27.60;99.90;;;;;;2006500;70;21524;-77
2023/06/19 01:24:38;;;;;;;6.22;2.35;;;27.60;99.90;;;;;;2000054;71;21566;-78
2023/06/19 01:27:10;;;;;;;11.15;3.27;;;27.70;99.90;;;;;;2002839;71;21124;-79
2023/06/19 01:29:42;;;;;;;6.50;2.35;;;27.70;99.90;;;;;;2006913;71;21760;-80
2023/06/19 01:32:16;;;;;;;8.90;3.10;;;27.70;99.90;;;;;;2007575;70;21081;-80
2023/06/19 01:34:51;;;;;;;18.37;3.30;;;27.70;99.90;;;;;;2014005;71;21066;-76
2023/06/19 01:37:27;;;;;;;12.90;3.05;;;27.80;99.90;;;;;;1991180;71;21117;-78
2023/06/19 01:40:01;;;;;;;43.15;5.42;;;27.80;99.90;;;;;;2009279;71;21128;-81
2023/06/19 01:42:32;;;;;;;26.48;4.70;;;27.80;99.90;;;;;;2015809;69;21029;-81
2023/06/19 01:45:10;;;;;;;5.60;2.70;;;27.80;99.90;;;;;;2000615;71;22216;-79
2023/06/19 01:47:42;;;;;;;6.60;2.50;;;27.90;99.90;;;;;;2001255;71;21060;-71
2023/06/19 01:50:13;;;;;;;7.22;2.60;;;28.00;99.90;;;;;;2010458;71;21062;-72
2023/06/19 01:52:44;;;;;;;9.13;2.27;;;28.00;99.90;;;;;;2001063;71;21095;-73
2023/06/19 01:55:15;;;;;;;10.48;3.52;;;28.10;99.90;;;;;;1998713;71;21612;-72
2023/06/19 01:57:46;;;;;;;10.72;3.37;;;28.10;99.90;;;;;;1998733;71;21049;-70
2023/06/19 02:00:18;;;;;;;6.75;2.95;;;28.10;99.90;;;;;;2003260;71;21083;-71
2023/06/19 02:02:48;;;;;;;8.45;2.77;;;28.10;99.90;;;;;;2003058;71;21185;-70
2023/06/19 02:05:20;;;;;;;4.85;2.33;;;28.20;99.90;;;;;;1998249;71;21101;-70
2023/06/19 02:07:51;;;;;;;4.35;2.30;;;28.30;99.90;;;;;;2000082;70;21629;-71
2023/06/19 02:10:22;;;;;;;10.85;3.42;;;28.40;99.90;;;;;;2005795;71;21084;-71
2023/06/19 02:12:54;;;;;;;3.92;2.00;;;28.40;99.90;;;;;;1995297;71;21068;-71
2023/06/19 02:15:25;;;;;;;5.12;2.22;;;28.50;99.90;;;;;;1991496;71;21089;-71
2023/06/19 02:17:57;;;;;;;6.87;3.17;;;28.50;99.90;;;;;;1995756;70;21082;-72
2023/06/19 02:20:29;;;;;;;5.30;2.58;;;28.60;99.90;;;;;;1996603;71;21080;-71
2023/06/19 02:23:00;;;;;;;7.97;3.42;;;28.60;99.90;;;;;;2009909;71;21158;-72
2023/06/19 02:25:31;;;;;;;12.43;3.45;;;28.70;99.90;;;;;;2011069;71;21526;-69
2023/06/19 02:28:03;;;;;;;5.12;2.50;;;28.70;99.90;;;;;;2009216;71;21100;-70
2023/06/19 02:30:34;;;;;;;3.92;2.20;;;28.80;99.90;;;;;;2017059;70;21504;-72
2023/06/19 02:33:06;;;;;;;4.58;2.20;;;28.80;99.90;;;;;;1999488;69;21157;-70
2023/06/19 02:35:37;;;;;;;25.77;11.57;;;28.90;99.90;;;;;;1984374;71;21080;-70
2023/06/19 02:38:08;;;;;;;6.53;2.77;;;28.90;99.90;;;;;;2012041;71;21103;-71
2023/06/19 02:40:40;;;;;;;30.65;5.60;;;28.90;99.90;;;;;;2000686;70;21591;-70
2023/06/19 02:43:11;;;;;;;7.03;2.33;;;28.90;99.90;;;;;;1984591;70;21106;-72
2023/06/19 02:45:43;;;;;;;5.50;2.85;;;29.00;99.90;;;;;;1976843;71;21630;-69
2023/06/19 02:48:14;;;;;;;7.42;2.65;;;28.90;99.90;;;;;;2000352;71;21441;-70
2023/06/19 02:50:46;;;;;;;4.25;2.45;;;29.00;99.90;;;;;;2013661;70;21139;-70
2023/06/19 02:53:19;;;;;;;4.78;2.50;;;28.90;99.90;;;;;;1990817;70;21104;-71
2023/06/19 02:55:50;;;;;;;6.58;2.67;;;29.00;99.90;;;;;;1994117;70;21755;-72
2023/06/19 02:58:24;;;;;;;6.58;2.70;;;29.00;99.90;;;;;;2013841;70;21106;-72
2023/06/19 03:00:55;;;;;;;4.65;2.80;;;29.10;99.90;;;;;;1985318;72;21032;-71
2023/06/19 03:03:26;;;;;;;4.55;2.85;;;29.10;99.90;;;;;;1994550;70;21105;-72
2023/06/19 03:05:59;;;;;;;154.40;20.37;;;29.10;99.90;;;;;;2006831;71;21084;-71
2023/06/19 03:08:30;;;;;;;14.15;3.27;;;29.20;99.90;;;;;;2003335;69;21076;-72
2023/06/19 03:11:04;;;;;;;13.28;4.10;;;29.30;99.90;;;;;;1996119;71;21081;-71
2023/06/19 03:13:36;;;;;;;9.00;3.42;;;29.30;99.90;;;;;;1995227;70;21079;-71
2023/06/19 03:16:08;;;;;;;5.65;2.70;;;29.40;99.90;;;;;;1994453;70;21539;-71
2023/06/19 03:18:39;;;;;;;3.00;1.77;;;29.40;99.90;;;;;;1929433;72;21124;-72
2023/06/19 03:21:12;;;;;;;6.47;2.15;;;29.50;99.90;;;;;;1946988;72;21641;-71
2023/06/19 03:23:43;;;;;;;16.52;3.35;;;29.60;99.90;;;;;;1974307;71;21686;-73
2023/06/19 03:26:16;;;;;;;6.87;2.52;;;29.60;99.90;;;;;;1952766;71;21563;-73
2023/06/19 03:28:47;;;;;;;58.52;8.88;;;29.70;99.90;;;;;;1936877;74;21144;-73
2023/06/19 03:31:18;;;;;;;5.40;2.70;;;29.80;99.90;;;;;;1948784;72;21114;-73
2023/06/19 03:33:49;;;;;;;15.63;5.33;;;29.90;99.90;;;;;;1960375;72;21107;-72
2023/06/19 03:36:22;;;;;;;5.95;2.33;;;30.10;99.90;;;;;;1942632;73;21126;-70
2023/06/19 03:38:55;;;;;;;5.67;2.65;;;30.10;99.90;;;;;;1944148;73;21135;-71
2023/06/19 03:41:27;;;;;;;7.97;4.25;;;30.20;99.90;;;;;;1948303;73;21114;-71
2023/06/19 03:43:59;;;;;;;9.10;2.80;;;30.30;99.90;;;;;;1954059;73;21062;-71
2023/06/19 03:46:31;;;;;;;8.65;3.12;;;30.40;99.90;;;;;;1951093;73;21104;-71
2023/06/19 03:49:04;;;;;;;7.00;2.83;;;30.40;99.90;;;;;;1946742;73;21114;-71
2023/06/19 03:51:35;;;;;;;9.15;2.47;;;30.40;99.90;;;;;;1947677;73;21722;-71
2023/06/19 03:54:07;;;;;;;4.45;2.52;;;30.50;99.90;;;;;;1943215;73;21208;-71
2023/06/19 03:56:39;;;;;;;6.65;2.67;;;30.50;99.90;;;;;;1960383;73;21231;-71
2023/06/19 03:59:10;;;;;;;12.58;3.50;;;30.50;99.90;;;;;;1950129;73;21098;-71
2023/06/19 04:01:42;;;;;;;8.88;2.80;;;30.50;99.90;;;;;;1958460;72;21135;-71
2023/06/19 04:04:13;;;;;;;8.30;2.75;;;30.50;99.90;;;;;;1954260;73;21192;-71
2023/06/19 04:06:46;;;;;;;7.47;2.45;;;30.60;99.90;;;;;;1954284;73;21102;-71
2023/06/19 04:09:17;;;;;;;12.78;3.45;;;30.60;99.90;;;;;;1955910;73;21188;-70
2023/06/19 04:11:48;;;;;;;15.70;4.37;;;30.70;99.90;;;;;;1947388;73;21533;-71
2023/06/19 04:14:19;;;;;;;25.05;5.97;;;30.70;99.90;;;;;;1953493;73;21766;-72
2023/06/19 04:16:50;;;;;;;17.82;3.05;;;30.80;99.90;;;;;;1957633;73;21157;-71
2023/06/19 04:19:23;;;;;;;12.13;3.20;;;30.90;99.90;;;;;;1957245;72;21592;-70
2023/06/19 04:21:54;;;;;;;7.60;3.20;;;31.00;99.90;;;;;;1952609;73;21207;-71
2023/06/19 04:24:26;;;;;;;5.08;2.35;;;31.20;99.90;;;;;;1949908;72;21109;-71
2023/06/19 04:26:57;;;;;;;6.85;2.42;;;31.30;99.20;;;;;;1954998;72;21063;-71
2023/06/19 04:29:31;;;;;;;12.33;2.80;;;31.40;98.90;;;;;;1960814;72;21114;-71
2023/06/19 04:32:03;;;;;;;14.83;3.42;;;31.40;98.70;;;;;;1955414;73;21117;-70
2023/06/19 04:34:35;;;;;;;5.10;1.85;;;31.40;98.90;;;;;;1966274;73;21116;-72
2023/06/19 04:37:07;;;;;;;7.50;2.27;;;31.40;98.10;;;;;;1943205;73;21067;-71
2023/06/19 04:39:38;;;;;;;6.47;2.35;;;31.30;98.20;;;;;;1947752;73;21156;-71
2023/06/19 04:42:10;;;;;;;24.82;4.25;;;31.40;98.80;;;;;;1963705;73;21083;-71
2023/06/19 04:44:41;;;;;;;7.28;2.92;;;31.40;98.90;;;;;;1957592;73;21220;-72
2023/06/19 04:47:13;;;;;;;10.68;2.95;;;31.40;98.60;;;;;;1941280;73;21098;-71
2023/06/19 04:49:44;;;;;;;3.90;1.82;;;31.40;98.70;;;;;;1946114;73;21181;-72
2023/06/19 04:52:15;;;;;;;10.43;2.90;;;31.40;97.50;;;;;;1955947;73;21639;-72
2023/06/19 04:54:48;;;;;;;6.70;3.02;;;31.30;97.80;;;;;;1951267;73;21059;-73
2023/06/19 04:57:19;;;;;;;6.90;2.55;;;31.30;98.50;;;;;;1953690;73;21119;-73
2023/06/19 04:59:52;;;;;;;5.15;2.58;;;31.20;98.60;;;;;;1954981;73;21172;-72
2023/06/19 05:02:23;;;;;;;13.15;4.08;;;31.20;98.60;;;;;;1955443;73;21713;-73
2023/06/19 05:04:55;;;;;;;5.25;2.33;;;31.20;98.80;;;;;;1950357;73;21055;-73
2023/06/19 05:07:26;;;;;;;5.00;1.98;;;31.20;98.80;;;;;;1911036;73;21130;-75
2023/06/19 05:09:58;;;;;;;6.50;2.45;;;31.40;98.30;;;;;;1915735;72;21076;-71
2023/06/19 05:12:30;;;;;;;7.25;2.55;;;31.50;98.10;;;;;;1944491;73;21230;-74
2023/06/19 05:15:01;;;;;;;4.03;2.55;;;31.60;98.70;;;;;;1961909;73;21035;-73
2023/06/19 05:17:33;;;;;;;7.28;2.98;;;31.70;98.80;;;;;;1948944;72;21060;-71
2023/06/19 05:20:04;;;;;;;6.53;2.72;;;31.80;98.20;;;;;;1953764;73;21063;-72
2023/06/19 05:22:37;;;;;;;11.63;3.77;;;31.80;98.10;;;;;;1959129;72;21497;-72
2023/06/19 05:25:09;;;;;;;5.55;2.50;;;31.90;97.80;;;;;;1957648;72;21114;-71
2023/06/19 05:27:40;;;;;;;4.00;2.27;;;31.80;97.50;;;;;;1940505;73;21109;-71
2023/06/19 05:30:12;;;;;;;4.80;2.12;;;31.90;97.70;;;;;;1963729;71;21169;-71
2023/06/19 05:32:43;;;;;;;5.55;2.40;;;31.90;97.40;;;;;;1942002;73;21059;-72
2023/06/19 05:35:14;;;;;;;6.90;2.37;;;31.90;97.30;;;;;;1957151;73;21138;-73
2023/06/19 05:37:46;;;;;;;4.03;2.08;;;31.80;97.40;;;;;;1955269;73;21060;-72
2023/06/19 05:40:17;;;;;;;5.12;1.85;;;31.90;97.20;;;;;;1949486;73;21548;-73
2023/06/19 05:42:49;;;;;;;5.12;1.70;;;31.90;97.10;;;;;;1957367;73;21117;-73
2023/06/19 05:45:21;;;;;;;4.25;1.80;;;32.00;97.00;;;;;;1953628;73;21141;-72
2023/06/19 05:47:53;;;;;;;5.40;1.90;;;32.00;96.40;;;;;;1951803;73;21162;-72
2023/06/19 05:50:24;;;;;;;5.00;2.08;;;32.00;96.90;;;;;;1959109;73;21055;-72
2023/06/19 05:52:55;;;;;;;7.50;2.10;;;32.00;96.80;;;;;;1954519;73;21636;-73
2023/06/19 05:55:32;;;;;;;4.62;1.60;;;32.10;97.10;;;;;;1943333;73;21032;-73
2023/06/19 05:57:59;;;;;;;6.35;2.55;;;32.20;97.10;;;;;;1959708;71;21214;-73
2023/06/19 06:00:31;;;;;;;3.05;1.70;;;32.20;97.00;;;;;;1953309;73;21627;-73
2023/06/19 06:03:03;;;;;;;2.70;1.65;;;32.20;96.70;;;;;;1952523;73;21197;-72
2023/06/19 06:05:36;;;;;;;5.25;2.10;;;32.20;95.90;;;;;;1954529;73;21142;-72
2023/06/19 06:08:07;;;;;;;4.60;1.60;;;32.20;95.80;;;;;;1942354;73;21715;-73
2023/06/19 06:10:39;;;;;;;4.15;1.77;;;32.10;95.20;;;;;;1952719;73;21109;-72
2023/06/19 06:13:10;;;;;;;27.35;4.72;;;32.00;95.60;;;;;;1954376;73;21078;-72
2023/06/19 06:15:43;;;;;;;6.90;2.17;;;32.00;95.80;;;;;;1947572;73;21637;-73
2023/06/19 06:18:16;;;;;;;5.83;2.17;;;32.00;95.70;;;;;;1950041;73;21122;-72
2023/06/19 06:20:47;;;;;;;4.70;2.00;;;32.00;96.20;;;;;;1959568;72;21561;-73
2023/06/19 06:23:18;;;;;;;27.07;5.65;;;32.10;95.70;;;;;;1955229;73;21672;-72
2023/06/19 06:25:50;;;;;;;10.05;2.17;;;32.10;95.70;;;;;;1961992;72;21147;-71
2023/06/19 06:28:22;;;;;;;7.55;3.70;;;32.10;95.30;;;;;;1959587;71;21080;-73
2023/06/19 06:30:53;;;;;;;6.78;3.65;;;32.10;95.60;;;;;;1953817;72;21123;-73
2023/06/19 06:33:27;;;;;;;6.47;2.52;;;32.20;95.50;;;;;;1946184;73;21103;-72
2023/06/19 06:36:00;;;;;;;4.85;1.70;;;32.20;95.80;;;;;;1938452;73;21196;-72
2023/06/19 06:38:35;;;;;;;6.78;1.85;;;32.20;95.20;;;;;;1942582;72;21129;-71
2023/06/19 06:41:06;;;;;;;5.47;2.22;;;32.30;95.20;;;;;;1950317;73;21134;-72
2023/06/19 06:43:38;;;;;;;4.42;2.02;;;32.30;95.20;;;;;;1950163;71;21719;-73
2023/06/19 06:46:15;;;;;;;4.30;1.80;;;32.40;95.00;;;;;;1911258;74;21066;-73
2023/06/19 06:48:43;;;;;;;2.72;1.20;;;32.50;95.10;;;;;;2011188;69;21566;-72
2023/06/19 06:51:14;;;;;;;4.60;1.55;;;32.60;94.20;;;;;;2006522;71;21165;-70
2023/06/19 06:53:46;;;;;;;4.67;1.40;;;32.60;94.10;;;;;;1987249;70;21524;-74
2023/06/19 06:56:17;;;;;;;11.45;2.85;;;32.50;94.70;;;;;;2024938;69;21518;-71
2023/06/19 06:58:49;;;;;;;3.83;1.52;;;32.40;95.10;;;;;;1939356;73;21134;-73
2023/06/19 07:01:21;;;;;;;2.85;1.47;;;32.40;94.50;;;;;;1938883;73;21107;-71
2023/06/19 07:03:52;;;;;;;6.95;2.00;;;32.40;95.30;;;;;;1919817;74;21801;-71
2023/06/19 07:06:24;;;;;;;3.35;1.30;;;32.30;95.60;;;;;;1929913;74;21107;-71
2023/06/19 07:08:55;;;;;;;4.40;1.72;;;32.30;95.30;;;;;;1962597;72;21127;-73
2023/06/19 07:11:27;;;;;;;5.72;1.90;;;32.40;95.20;;;;;;1969053;71;21114;-70
2023/06/19 07:13:58;;;;;;;8.18;2.30;;;32.40;95.50;;;;;;1964368;73;21166;-71
2023/06/19 07:16:30;;;;;;;9.40;2.17;;;32.40;95.40;;;;;;1963223;73;21136;-72
2023/06/19 07:19:04;;;;;;;3.47;1.70;;;32.40;95.30;;;;;;1924725;73;21140;-73
2023/06/19 07:21:36;;;;;;;14.20;2.55;;;32.30;95.10;;;;;;1956996;73;21083;-72
2023/06/19 07:24:26;;;;;;;24.07;4.45;;;32.20;95.50;;;;;;1942116;73;21126;-71
2023/06/19 07:26:59;;;;;;;13.95;3.35;;;32.20;95.90;;;;;;1954989;73;21170;-71
2023/06/19 07:29:30;;;;;;;7.78;2.00;;;32.20;95.60;;;;;;1956178;73;21110;-71
2023/06/19 07:32:03;;;;;;;5.70;2.08;;;32.20;95.80;;;;;;1966676;73;21236;-72
2023/06/19 07:34:35;;;;;;;5.22;2.33;;;32.10;95.80;;;;;;1953370;73;21180;-71
2023/06/19 07:37:07;;;;;;;6.80;1.90;;;32.10;95.90;;;;;;1959649;73;21490;-71
2023/06/19 07:39:38;;;;;;;5.80;2.10;;;32.10;95.80;;;;;;1968116;72;21162;-72
2023/06/19 07:42:10;;;;;;;5.30;1.75;;;32.10;96.00;;;;;;1970667;73;22333;-72
2023/06/19 07:44:41;;;;;;;15.08;3.62;;;32.00;96.00;;;;;;1961638;72;21515;-71
2023/06/19 07:47:13;;;;;;;6.53;2.22;;;32.00;96.30;;;;;;1952562;73;21614;-73
2023/06/19 07:49:45;;;;;;;12.53;3.10;;;32.00;96.70;;;;;;1948310;72;21189;-74
2023/06/19 07:52:17;;;;;;;18.90;3.45;;;31.90;97.10;;;;;;1957586;73;21717;-70
2023/06/19 07:54:55;;;;;;;9.65;2.90;;;31.80;97.90;;;;;;1963485;73;21122;-72
2023/06/19 07:57:28;;;;;;;12.65;3.00;;;31.80;99.60;;;;;;1961949;72;21579;-71
2023/06/19 08:00:12;;;;;;;13.28;3.98;;;31.70;99.90;;;;;;1947101;73;21036;-73
2023/06/19 08:02:40;;;;;;;5.22;2.83;;;31.60;99.90;;;;;;1960336;73;21536;-72
2023/06/19 08:05:12;;;;;;;10.35;3.33;;;31.50;99.90;;;;;;1950502;73;21220;-73
2023/06/19 08:07:44;;;;;;;17.02;4.33;;;31.30;99.90;;;;;;1952208;73;21184;-73
2023/06/19 08:10:16;;;;;;;21.00;4.62;;;31.30;99.90;;;;;;1968628;73;21090;-73
2023/06/19 08:13:07;;;;;;;12.60;3.77;;;31.20;99.90;;;;;;1950453;73;21106;-73
2023/06/19 08:15:39;;;;;;;7.53;2.90;;;31.20;99.90;;;;;;1914218;73;21131;-71
2023/06/19 08:18:12;;;;;;;10.48;2.90;;;31.20;99.90;;;;;;1910949;75;21087;-71
2023/06/19 08:20:44;;;;;;;10.63;5.05;;;31.20;99.90;;;;;;1900567;75;21227;-71
2023/06/19 08:23:16;;;;;;;14.83;3.98;;;31.20;99.90;;;;;;1897307;75;21168;-72
2023/06/19 08:25:47;;;;;;;11.48;4.40;;;31.20;99.90;;;;;;1914612;75;21110;-71
2023/06/19 08:28:19;;;;;;;17.67;3.72;;;31.20;99.90;;;;;;1905631;73;21067;-72
2023/06/19 08:30:51;;;;;;;12.93;3.40;;;31.20;99.90;;;;;;1912457;74;21238;-72
2023/06/19 08:33:24;;;;;;;10.32;3.27;;;31.30;99.90;;;;;;1911066;73;21142;-72
2023/06/19 08:35:56;;;;;;;5.95;3.27;;;31.30;99.90;;;;;;1864610;75;21152;-72
2023/06/19 08:38:28;;;;;;;15.30;3.83;;;31.20;99.90;;;;;;1863571;75;21181;-72
2023/06/19 08:41:00;;;;;;;6.15;3.15;;;31.10;99.90;;;;;;1903499;74;21188;-72
2023/06/19 08:43:32;;;;;;;8.60;3.42;;;31.10;99.90;;;;;;1903437;75;21157;-73
2023/06/19 08:46:14;;;;;;;8.40;2.72;;;30.90;99.90;;;;;;1896823;74;21212;-72
2023/06/19 08:48:46;;;;;;;4.97;2.60;;;30.80;99.90;;;;;;1897114;75;21606;-73
2023/06/19 08:51:18;;;;;;;7.08;3.20;;;30.80;99.90;;;;;;1897102;73;21060;-73
2023/06/19 08:53:52;;;;;;;7.55;3.25;;;30.70;99.90;;;;;;1899362;74;21118;-72
2023/06/19 08:56:23;;;;;;;17.98;4.40;;;30.60;99.90;;;;;;1903378;74;21588;-71
2023/06/19 08:58:55;;;;;;;5.72;2.77;;;30.60;99.90;;;;;;1905170;75;21145;-73
2023/06/19 09:01:28;;;;;;;6.03;2.62;;;30.60;99.90;;;;;;1903690;74;21533;-74
2023/06/19 09:03:59;;;;;;;6.03;3.02;;;30.60;99.90;;;;;;1901926;74;21215;-73
2023/06/19 09:06:33;;;;;;;5.65;2.65;;;30.60;99.90;;;;;;1904500;74;21196;-73
2023/06/19 09:09:10;;;;;;;20.35;3.85;;;30.60;99.90;;;;;;1901753;75;21101;-73
2023/06/19 09:11:43;;;;;;;19.00;4.33;;;30.50;99.90;;;;;;1898499;74;21204;-74
2023/06/19 09:14:13;;;;;;;15.53;4.17;;;30.60;99.90;;;;;;1898059;74;21094;-72
2023/06/19 09:16:44;;;;;;;10.32;3.17;;;30.60;99.90;;;;;;1884247;74;21119;-74
2023/06/19 09:19:18;;;;;;;8.50;3.35;;;30.60;99.90;;;;;;1903996;74;21012;-74
2023/06/19 09:21:50;;;;;;;9.53;3.30;;;30.70;99.90;;;;;;1895588;73;21071;-72
2023/06/19 09:24:21;;;;;;;9.03;4.70;;;30.70;99.90;;;;;;1897804;74;21119;-71
2023/06/19 09:26:53;;;;;;;9.53;5.08;;;30.70;99.90;;;;;;1902980;74;21170;-72
2023/06/19 09:29:25;;;;;;;10.88;3.30;;;30.80;99.90;;;;;;1907885;74;21107;-72
2023/06/19 09:31:57;;;;;;;15.83;4.67;;;30.80;99.90;;;;;;1912983;74;21158;-74
2023/06/19 09:34:29;;;;;;;11.73;3.65;;;30.90;99.90;;;;;;1934892;73;21194;-73
2023/06/19 09:37:00;;;;;;;18.80;4.00;;;30.90;99.90;;;;;;1935032;73;21072;-72
2023/06/19 09:39:33;;;;;;;7.25;3.10;;;30.90;99.90;;;;;;1916508;73;21145;-71
2023/06/19 09:42:06;;;;;;;15.78;3.70;;;31.00;99.90;;;;;;1922677;74;21112;-72
2023/06/19 09:44:45;;;;;;;16.27;4.60;;;31.00;99.90;;;;;;1928771;73;21072;-72
2023/06/19 09:47:24;;;;;;;26.50;5.05;;;31.00;99.90;;;;;;1929593;73;21405;-71
2023/06/19 09:49:57;;;;;;;16.23;4.05;;;31.00;99.90;;;;;;1936927;74;21106;-72
2023/06/19 09:52:29;;;;;;;19.45;5.28;;;31.00;99.90;;;;;;1928368;73;21041;-72
2023/06/19 09:55:03;;;;;;;15.05;4.53;;;31.10;99.90;;;;;;1926672;73;21100;-71
2023/06/19 09:57:35;;;;;;;18.85;5.17;;;31.10;99.90;;;;;;1928590;73;21570;-73
2023/06/19 10:02:45;;;;;;;10.35;2.98;;;31.10;99.70;;;;;;1934535;73;21131;-71
2023/06/19 10:05:18;;;;;;;8.03;3.47;;;31.10;99.40;;;;;;1928464;73;21141;-73
2023/06/19 10:07:49;;;;;;;9.53;3.37;;;31.20;99.30;;;;;;1941802;73;21092;-72
2023/06/19 10:10:28;;;;;;;21.90;6.30;;;31.20;99.30;;;;;;1934096;72;21119;-73
2023/06/19 10:13:20;;;;;;;16.60;6.28;;;31.20;99.40;;;;;;1932330;72;21100;-73
2023/06/19 10:15:51;;;;;;;12.33;5.75;;;31.20;99.50;;;;;;1943696;72;21107;-73
2023/06/19 10:18:25;;;;;;;10.65;4.08;;;31.30;99.40;;;;;;1939532;72;21150;-73
2023/06/19 10:20:57;;;;;;;7.95;3.42;;;31.30;99.90;;;;;;1947714;73;21048;-74
2023/06/19 10:23:31;;;;;;;8.25;3.50;;;31.20;99.90;;;;;;1940549;72;21584;-72
2023/06/19 10:26:06;;;;;;;7.28;4.33;;;31.30;99.90;;;;;;1936456;72;21144;-77
2023/06/19 10:28:37;;;;;;;15.38;4.90;;;31.20;99.90;;;;;;1944850;72;21060;-72
2023/06/19 10:31:09;;;;;;;8.10;4.17;;;31.20;99.90;;;;;;1934756;72;21036;-75
2023/06/19 10:33:41;;;;;;;7.15;3.62;;;31.10;99.90;;;;;;1935017;72;21088;-73
2023/06/19 10:36:19;;;;;;;10.10;3.65;;;31.10;99.90;;;;;;1940524;73;21689;-73
2023/06/19 10:38:51;;;;;;;5.75;3.22;;;31.10;99.90;;;;;;1947531;72;21147;-70
2023/06/19 10:41:28;;;;;;;6.70;3.30;;;31.10;99.90;;;;;;1939840;72;21068;-74
2023/06/19 10:44:13;;;;;;;7.83;3.70;;;31.00;99.90;;;;;;1934412;73;21189;-74
2023/06/19 10:46:40;;;;;;;9.25;4.12;;;31.00;99.90;;;;;;1946024;72;21189;-72
2023/06/19 10:49:13;;;;;;;8.13;3.47;;;30.90;99.90;;;;;;1946472;73;21118;-74
2023/06/19 10:51:46;;;;;;;6.22;3.17;;;30.90;99.90;;;;;;1940297;72;21068;-74
2023/06/19 10:54:18;;;;;;;7.83;3.62;;;30.90;99.90;;;;;;1944876;72;21040;-71
2023/06/19 10:56:51;;;;;;;9.05;5.28;;;30.90;99.90;;;;;;1934997;72;21103;-72
2023/06/19 10:59:24;;;;;;;9.78;5.97;;;30.90;99.90;;;;;;1945995;72;21221;-73
2023/06/19 11:01:56;;;;;;;13.08;6.67;;;30.80;99.90;;;;;;1947765;72;21119;-74
2023/06/19 11:04:29;;;;;;;10.88;5.92;;;30.80;99.90;;;;;;1945206;73;21165;-74
2023/06/19 11:07:03;;;;;;;13.35;7.12;;;30.70;99.90;;;;;;1943111;72;21107;-73
2023/06/19 11:09:35;;;;;;;11.53;6.10;;;30.70;99.90;;;;;;1943502;72;21080;-73
2023/06/19 11:12:07;;;;;;;10.10;6.67;;;30.70;99.90;;;;;;1936748;72;21088;-72
2023/06/19 11:14:42;;;;;;;12.10;6.95;;;30.70;99.90;;;;;;1939694;72;21099;-72
2023/06/19 11:17:13;;;;;;;11.78;6.47;;;30.70;99.90;;;;;;1936776;72;21025;-72
2023/06/19 11:19:45;;;;;;;11.20;5.80;;;30.70;99.90;;;;;;1935311;72;21573;-71
2023/06/19 11:22:17;;;;;;;10.53;6.22;;;30.60;99.90;;;;;;1899491;73;21131;-73
2023/06/19 11:24:50;;;;;;;11.30;7.25;;;30.60;99.90;;;;;;1935887;72;21119;-71
2023/06/19 11:27:27;;;;;;;17.50;8.53;;;30.60;99.90;;;;;;1940684;72;21735;-72
2023/06/19 11:29:58;;;;;;;;;;;30.50;99.90;;;;;;1941487;72;21119;-74
2023/06/19 11:32:40;;;;;;;8.78;5.67;;;30.60;99.90;;;;;;1938420;72;20180;-73
2023/06/19 11:35:16;;;;;;;10.95;5.25;;;30.50;99.90;;;;;;1939946;73;21146;-72
2023/06/19 11:37:49;;;;;;;10.45;6.03;;;30.50;99.90;;;;;;1941849;72;21653;-71
2023/06/19 11:40:23;;;;;;;13.98;6.17;;;30.40;99.90;;;;;;1942459;73;21518;-72
2023/06/19 11:42:55;;;;;;;11.70;6.22;;;30.40;99.90;;;;;;1940650;72;21139;-71
2023/06/19 11:45:26;;;;;;;10.18;6.17;;;30.40;99.90;;;;;;1939676;71;21149;-72
2023/06/19 11:47:58;;;;;;;10.88;6.10;;;30.30;99.90;;;;;;1941165;72;21135;-73
2023/06/19 11:50:31;;;;;;;11.33;5.42;;;30.30;99.90;;;;;;1948330;73;21107;-72
2023/06/19 11:53:02;;;;;;;8.63;5.70;;;30.30;99.90;;;;;;1941141;71;21132;-70
2023/06/19 11:55:34;;;;;;;10.90;5.80;;;30.20;99.90;;;;;;1927345;73;21566;-72
2023/06/19 11:58:07;;;;;;;9.70;5.22;;;30.30;99.90;;;;;;1927995;72;21156;-72
2023/06/19 12:00:39;;;;;;;11.68;5.42;;;30.20;99.90;;;;;;1940608;74;21104;-70
2023/06/19 12:03:11;;;;;;;9.65;5.03;;;30.20;99.90;;;;;;1927843;72;21107;-71
2023/06/19 12:05:43;;;;;;;9.83;5.58;;;30.20;99.90;;;;;;1904898;73;21720;-70
2023/06/19 12:08:15;;;;;;;10.75;5.17;;;30.20;99.90;;;;;;1936271;74;21067;-71
2023/06/19 12:10:47;;;;;;;12.80;5.22;;;30.10;99.90;;;;;;1930503;74;21049;-71
2023/06/19 12:13:18;;;;;;;10.65;5.62;;;30.10;99.90;;;;;;1941298;74;21154;-72
2023/06/19 12:15:51;;;;;;;7.83;5.33;;;30.10;99.90;;;;;;1940966;74;21084;-70
2023/06/19 12:18:23;;;;;;;9.18;4.78;;;30.10;99.90;;;;;;1935338;73;21052;-70
2023/06/19 12:20:54;;;;;;;7.83;5.17;;;30.10;99.90;;;;;;1936113;73;21216;-71
2023/06/19 12:23:26;;;;;;;11.10;5.17;;;30.00;99.90;;;;;;1909246;73;21546;-70
2023/06/19 12:25:58;;;;;;;8.68;5.28;;;30.00;99.90;;;;;;1935095;72;21108;-70
2023/06/19 12:28:29;;;;;;;8.83;4.95;;;30.00;99.90;;;;;;1936117;72;21075;-72
2023/06/19 12:31:03;;;;;;;7.78;4.97;;;30.00;99.90;;;;;;1947997;73;21139;-72
2023/06/19 12:33:35;;;;;;;7.70;4.70;;;30.00;99.90;;;;;;1932815;73;21076;-71
2023/06/19 12:36:07;;;;;;;7.12;4.53;;;29.90;99.90;;;;;;1942401;73;21188;-71
2023/06/19 12:38:39;;;;;;;7.92;4.67;;;29.90;99.90;;;;;;1934733;72;21123;-71
2023/06/19 12:41:14;;;;;;;12.70;5.25;;;29.90;99.90;;;;;;1932122;73;21167;-71
2023/06/19 12:43:46;;;;;;;9.28;4.70;;;29.90;99.90;;;;;;1932084;73;21134;-70
2023/06/19 12:46:18;;;;;;;14.05;6.20;;;29.90;99.90;;;;;;1941718;73;21110;-71
2023/06/19 12:48:50;;;;;;;9.80;6.75;;;29.90;99.90;;;;;;1944558;72;21146;-70
2023/06/19 12:51:23;;;;;;;8.83;5.65;;;29.90;99.90;;;;;;1948615;72;21106;-70
2023/06/19 12:53:55;;;;;;;9.53;5.67;;;29.90;99.90;;;;;;1939681;73;21096;-72
2023/06/19 12:56:26;;;;;;;9.90;5.58;;;29.90;99.90;;;;;;1937069;72;21169;-72
2023/06/19 12:59:00;;;;;;;10.58;5.97;;;29.90;99.90;;;;;;1942846;73;21479;-71
2023/06/19 13:01:32;;;;;;;12.58;5.97;;;29.90;99.90;;;;;;1944871;73;21123;-70
2023/06/19 13:04:04;;;;;;;10.65;5.85;;;29.90;99.90;;;;;;1940373;73;21577;-72
2023/06/19 13:06:37;;;;;;;8.93;6.25;;;29.90;99.90;;;;;;1942937;72;21159;-72
2023/06/19 13:09:10;;;;;;;11.30;7.03;;;29.90;99.90;;;;;;1940895;72;21107;-73
2023/06/19 13:11:41;;;;;;;11.33;6.45;;;29.90;99.90;;;;;;1932772;73;21044;-72